Time;durP1;ratioP1;P1;durP2;ratioP2;P2;SDS_P1;SDS_P2;PMS_P1;PMS_P2;Temp;Humidity;BMP_temperature;BMP_pressure;BME280_temperature;BME280_humidity;BME280_pressure;Samples;Min_cycle;Max_cycle;Signal;HPM_P1;HPM_P2
2022/02/22 00:02:22;;;;;;;5.32;1.50;;;;;;;;;;5105258;28;20090;-70
2022/02/22 00:04:47;;;;;;;3.35;1.30;;;;;;;;;;5104351;28;20471;-70
2022/02/22 00:07:13;;;;;;;4.15;1.40;;;;;;;;;;5105444;28;20032;-70
2022/02/22 00:09:39;;;;;;;6.40;1.70;;;;;;;;;;5103361;28;20073;-70
2022/02/22 00:12:05;;;;;;;3.75;1.13;;;;;;;;;;5103858;28;20351;-69
2022/02/22 00:14:30;;;;;;;2.60;1.42;;;;;;;;;;5104961;28;20020;-70
2022/02/22 00:16:56;;;;;;;4.13;1.10;;;;;;;;;;5105224;28;20028;-72
2022/02/22 00:19:23;;;;;;;3.20;0.88;;;;;;;;;;5104026;28;20028;-70
2022/02/22 00:21:49;;;;;;;2.05;1.08;;;;;;;;;;5104877;28;20103;-72
2022/02/22 00:24:14;;;;;;;1.92;1.20;;;;;;;;;;5104539;28;20094;-71
2022/02/22 00:26:40;;;;;;;1.90;1.20;;;;;;;;;;5104752;28;20335;-70
2022/02/22 00:29:05;;;;;;;3.10;1.10;;;;;;;;;;5102960;28;20028;-71
2022/02/22 00:31:30;;;;;;;8.38;1.55;;;;;;;;;;5103684;28;20032;-71
2022/02/22 00:33:56;;;;;;;5.35;1.58;;;;;;;;;;5104208;28;20028;-70
2022/02/22 00:36:21;;;;;;;2.10;1.15;;;;;;;;;;5103162;28;20034;-70
2022/02/22 00:38:49;;;;;;;3.97;1.38;;;;;;;;;;5104391;28;20028;-71
2022/02/22 00:41:15;;;;;;;4.65;1.60;;;;;;;;;;5103821;28;20043;-70
2022/02/22 00:43:41;;;;;;;4.35;1.40;;;;;;;;;;5104348;28;20058;-72
2022/02/22 00:46:06;;;;;;;1.83;1.05;;;;;;;;;;5104706;28;20028;-70
2022/02/22 00:48:32;;;;;;;2.78;1.40;;;;;;;;;;5104917;28;20081;-70
2022/02/22 00:50:57;;;;;;;6.30;1.58;;;;;;;;;;5104111;28;20039;-70
2022/02/22 00:53:23;;;;;;;5.15;1.50;;;;;;;;;;5103340;28;20036;-70
2022/02/22 00:55:48;;;;;;;4.65;1.70;;;;;;;;;;5102693;28;20031;-71
2022/02/22 00:58:13;;;;;;;3.45;1.23;;;;;;;;;;5103914;28;20387;-70
2022/02/22 01:00:39;;;;;;;3.78;1.45;;;;;;;;;;5104536;28;20034;-72
2022/02/22 01:03:04;;;;;;;2.95;1.20;;;;;;;;;;5104699;28;20046;-70
2022/02/22 01:05:30;;;;;;;4.53;1.15;;;;;;;;;;5104334;28;20024;-71
2022/02/22 01:07:56;;;;;;;2.85;1.20;;;;;;;;;;5104086;28;20287;-71
2022/02/22 01:10:22;;;;;;;2.13;1.10;;;;;;;;;;5104279;28;20020;-71
2022/02/22 01:12:47;;;;;;;3.45;1.33;;;;;;;;;;5104266;28;20056;-71
2022/02/22 01:15:13;;;;;;;2.90;1.05;;;;;;;;;;5102892;28;20067;-70
2022/02/22 01:17:38;;;;;;;2.70;1.00;;;;;;;;;;5104204;28;20085;-71
2022/02/22 01:20:07;;;;;;;3.20;1.10;;;;;;;;;;5103808;28;20035;-72
2022/02/22 01:22:33;;;;;;;4.65;1.65;;;;;;;;;;5102511;28;20024;-71
2022/02/22 01:24:59;;;;;;;6.55;1.38;;;;;;;;;;5103051;28;20107;-71
2022/02/22 01:27:24;;;;;;;4.95;1.40;;;;;;;;;;5102220;28;20054;-72
2022/02/22 01:29:50;;;;;;;8.68;1.83;;;;;;;;;;5102964;28;20027;-72
2022/02/22 01:32:15;;;;;;;7.03;1.90;;;;;;;;;;5102190;28;20610;-72
2022/02/22 01:34:41;;;;;;;4.28;1.55;;;;;;;;;;5102179;28;20024;-70
2022/02/22 01:37:06;;;;;;;8.90;1.58;;;;;;;;;;5102026;28;20027;-71
2022/02/22 01:39:32;;;;;;;7.20;1.83;;;;;;;;;;5101965;28;20462;-72
2022/02/22 01:41:57;;;;;;;5.15;1.20;;;;;;;;;;5103904;28;20035;-73
2022/02/22 01:44:23;;;;;;;5.55;1.20;;;;;;;;;;5100993;28;20040;-72
2022/02/22 01:47:07;;;;;;;8.55;1.70;;;;;;;;;;5101706;28;20028;-72
2022/02/22 01:49:34;;;;;;;3.67;1.35;;;;;;;;;;5103287;28;20444;-72
2022/02/22 01:52:02;;;;;;;5.53;1.50;;;;;;;;;;5103280;28;20079;-71
2022/02/22 01:54:27;;;;;;;7.93;2.03;;;;;;;;;;5102037;28;20024;-72
2022/02/22 01:56:57;;;;;;;7.22;1.83;;;;;;;;;;5102928;28;20032;-71
2022/02/22 01:59:23;;;;;;;6.20;1.63;;;;;;;;;;5101693;28;20024;-72
2022/02/22 02:01:48;;;;;;;8.48;1.80;;;;;;;;;;5101284;28;20031;-72
2022/02/22 02:04:14;;;;;;;9.70;2.30;;;;;;;;;;5103412;28;20028;-72
2022/02/22 02:06:39;;;;;;;3.78;1.42;;;;;;;;;;5102953;28;20020;-72
2022/02/22 02:09:09;;;;;;;6.63;1.60;;;;;;;;;;5103239;28;20024;-73
2022/02/22 02:12:10;;;;;;;4.65;1.73;;;;;;;;;;5103198;28;20020;-72
2022/02/22 02:14:36;;;;;;;7.82;2.00;;;;;;;;;;5059190;28;20032;-72
2022/02/22 02:17:01;;;;;;;7.70;2.08;;;;;;;;;;5092711;28;20092;-73
2022/02/22 02:19:26;;;;;;;6.38;1.77;;;;;;;;;;5103059;28;20020;-72
2022/02/22 02:21:57;;;;;;;6.65;1.95;;;;;;;;;;5103246;28;20024;-72
2022/02/22 02:24:24;;;;;;;5.50;1.48;;;;;;;;;;5102835;28;20048;-73
2022/02/22 02:26:51;;;;;;;9.50;1.75;;;;;;;;;;5100371;28;20020;-73
2022/02/22 02:29:19;;;;;;;6.05;2.13;;;;;;;;;;5102863;28;20035;-72
2022/02/22 02:31:51;;;;;;;7.32;2.20;;;;;;;;;;5101121;28;20020;-73
2022/02/22 02:34:21;;;;;;;11.27;2.25;;;;;;;;;;5101522;28;20035;-73
2022/02/22 02:36:46;;;;;;;4.70;2.03;;;;;;;;;;5102233;28;20106;-72
2022/02/22 02:39:13;;;;;;;7.07;2.20;;;;;;;;;;5102420;28;20048;-72
2022/02/22 02:41:40;;;;;;;6.03;2.00;;;;;;;;;;5102256;28;20050;-72
2022/02/22 02:44:14;;;;;;;5.57;1.88;;;;;;;;;;5106813;28;20034;-72
2022/02/22 02:46:41;;;;;;;5.55;1.95;;;;;;;;;;5106843;28;20034;-73
2022/02/22 02:49:07;;;;;;;7.60;2.42;;;;;;;;;;5106663;28;20028;-70
2022/02/22 02:51:33;;;;;;;7.18;2.10;;;;;;;;;;5106737;28;20050;-72
2022/02/22 02:53:59;;;;;;;5.50;1.77;;;;;;;;;;5106710;28;20028;-73
2022/02/22 02:56:25;;;;;;;4.65;2.03;;;;;;;;;;5106789;28;20035;-73
2022/02/22 02:58:52;;;;;;;7.35;2.08;;;;;;;;;;5105573;28;20024;-72
2022/02/22 03:01:18;;;;;;;4.90;1.52;;;;;;;;;;5106579;28;20024;-73
2022/02/22 03:03:44;;;;;;;4.38;1.50;;;;;;;;;;5106654;28;20039;-73
2022/02/22 03:06:09;;;;;;;6.18;2.15;;;;;;;;;;5105415;28;20016;-72
2022/02/22 03:08:34;;;;;;;4.45;1.50;;;;;;;;;;5105049;28;20503;-73
2022/02/22 03:11:00;;;;;;;7.75;1.65;;;;;;;;;;5106228;28;20546;-73
2022/02/22 03:13:25;;;;;;;7.05;1.88;;;;;;;;;;5104416;28;20047;-72
2022/02/22 03:15:50;;;;;;;2.90;1.23;;;;;;;;;;5104534;28;20039;-73
2022/02/22 03:18:16;;;;;;;4.82;1.55;;;;;;;;;;5105304;28;20251;-73
2022/02/22 03:20:42;;;;;;;5.80;1.92;;;;;;;;;;5104641;28;20049;-74
2022/02/22 03:23:07;;;;;;;4.68;1.48;;;;;;;;;;5106213;28;20089;-74
2022/02/22 03:25:32;;;;;;;4.68;1.38;;;;;;;;;;5104409;28;20113;-74
2022/02/22 03:28:00;;;;;;;7.47;1.63;;;;;;;;;;5106554;28;20023;-73
2022/02/22 03:30:28;;;;;;;5.40;1.67;;;;;;;;;;5104558;28;20039;-73
2022/02/22 03:32:53;;;;;;;5.15;1.70;;;;;;;;;;5104678;28;20039;-72
2022/02/22 03:35:19;;;;;;;3.45;1.40;;;;;;;;;;5105974;28;20021;-73
2022/02/22 03:37:44;;;;;;;2.92;1.38;;;;;;;;;;5104810;28;20448;-73
2022/02/22 03:40:10;;;;;;;5.18;1.38;;;;;;;;;;5105757;28;20028;-73
2022/02/22 03:42:39;;;;;;;3.70;1.20;;;;;;;;;;5104623;28;20085;-72
2022/02/22 03:45:05;;;;;;;3.35;1.40;;;;;;;;;;5105548;28;20066;-73
2022/02/22 03:47:31;;;;;;;6.63;2.33;;;;;;;;;;5105983;28;20079;-72
2022/02/22 03:49:56;;;;;;;6.05;1.60;;;;;;;;;;5105562;28;20081;-72
2022/02/22 03:52:21;;;;;;;4.13;1.70;;;;;;;;;;5104345;28;20606;-73
2022/02/22 03:54:47;;;;;;;2.92;1.30;;;;;;;;;;5104216;28;20030;-73
2022/02/22 03:57:12;;;;;;;5.63;1.52;;;;;;;;;;5104429;28;20024;-73
2022/02/22 03:59:37;;;;;;;4.03;1.55;;;;;;;;;;5105400;28;20063;-72
2022/02/22 04:02:03;;;;;;;3.47;1.27;;;;;;;;;;5104132;28;20024;-73
2022/02/22 04:04:28;;;;;;;3.75;1.20;;;;;;;;;;5105466;28;20119;-73
2022/02/22 04:06:57;;;;;;;6.45;1.70;;;;;;;;;;5105602;28;20032;-73
2022/02/22 04:09:22;;;;;;;3.95;1.60;;;;;;;;;;5105655;28;20046;-73
2022/02/22 04:11:47;;;;;;;3.17;1.40;;;;;;;;;;5105119;28;20040;-73
2022/02/22 04:14:13;;;;;;;6.50;1.73;;;;;;;;;;5105293;28;20032;-72
2022/02/22 04:16:38;;;;;;;3.28;1.33;;;;;;;;;;5104910;28;20502;-73
2022/02/22 04:19:04;;;;;;;5.22;1.73;;;;;;;;;;5103843;28;20028;-73
2022/02/22 04:21:29;;;;;;;3.50;1.60;;;;;;;;;;5103848;28;20051;-73
2022/02/22 04:23:54;;;;;;;6.10;1.58;;;;;;;;;;5103676;28;20070;-73
2022/02/22 04:26:20;;;;;;;5.20;1.92;;;;;;;;;;5103834;28;20064;-72
2022/02/22 04:28:45;;;;;;;6.13;1.77;;;;;;;;;;5105025;28;20282;-73
2022/02/22 04:31:10;;;;;;;3.75;1.70;;;;;;;;;;5103585;28;20020;-73
2022/02/22 04:33:36;;;;;;;5.07;1.83;;;;;;;;;;5105407;28;20037;-74
2022/02/22 04:36:01;;;;;;;5.45;1.85;;;;;;;;;;5104587;28;20031;-73
2022/02/22 04:38:26;;;;;;;2.63;1.50;;;;;;;;;;5104755;28;20028;-73
2022/02/22 04:40:52;;;;;;;3.85;1.98;;;;;;;;;;5103438;28;20116;-72
2022/02/22 04:43:17;;;;;;;5.45;1.88;;;;;;;;;;5103855;28;20031;-73
2022/02/22 04:45:42;;;;;;;3.63;1.63;;;;;;;;;;5104779;28;20061;-73
2022/02/22 04:48:08;;;;;;;2.78;1.38;;;;;;;;;;5103332;28;20035;-74
2022/02/22 04:50:33;;;;;;;3.95;1.65;;;;;;;;;;5103444;28;20119;-72
2022/02/22 04:52:59;;;;;;;4.28;1.38;;;;;;;;;;5104853;28;20035;-73
2022/02/22 04:55:24;;;;;;;3.50;1.45;;;;;;;;;;5104501;28;20028;-73
2022/02/22 04:57:49;;;;;;;2.80;1.42;;;;;;;;;;5104397;28;20031;-73
2022/02/22 05:00:15;;;;;;;3.28;1.70;;;;;;;;;;5102696;28;20118;-74
2022/02/22 05:02:41;;;;;;;3.15;1.45;;;;;;;;;;5104762;28;20484;-73
2022/02/22 05:05:08;;;;;;;5.55;1.70;;;;;;;;;;5102933;28;20024;-73
2022/02/22 05:07:34;;;;;;;4.50;1.77;;;;;;;;;;5103067;28;20051;-73
2022/02/22 05:09:59;;;;;;;3.38;1.45;;;;;;;;;;5102699;28;20032;-73
2022/02/22 05:12:24;;;;;;;4.05;1.60;;;;;;;;;;5104223;28;20024;-73
2022/02/22 05:14:50;;;;;;;5.15;2.22;;;;;;;;;;5103803;28;20031;-74
2022/02/22 05:17:15;;;;;;;4.18;1.90;;;;;;;;;;5103934;28;20016;-73
2022/02/22 05:19:40;;;;;;;4.03;1.63;;;;;;;;;;5102682;28;20512;-71
2022/02/22 05:22:06;;;;;;;3.20;1.38;;;;;;;;;;5104024;28;20108;-73
2022/02/22 05:24:31;;;;;;;3.35;1.75;;;;;;;;;;5103568;28;20079;-73
2022/02/22 05:26:57;;;;;;;4.72;1.70;;;;;;;;;;5102782;28;20363;-73
2022/02/22 05:29:22;;;;;;;5.45;1.70;;;;;;;;;;5102488;28;20330;-74
2022/02/22 05:31:47;;;;;;;5.25;1.75;;;;;;;;;;5104282;28;20024;-73
2022/02/22 05:34:14;;;;;;;4.60;1.70;;;;;;;;;;5104160;28;20389;-72
2022/02/22 05:36:39;;;;;;;5.82;1.85;;;;;;;;;;5103446;28;20024;-73
2022/02/22 05:39:05;;;;;;;5.45;1.90;;;;;;;;;;5103809;28;20028;-73
2022/02/22 05:41:31;;;;;;;3.80;1.60;;;;;;;;;;5103696;28;20250;-72
2022/02/22 05:43:56;;;;;;;5.55;1.75;;;;;;;;;;5103953;28;20095;-74
2022/02/22 05:46:22;;;;;;;5.25;1.98;;;;;;;;;;5104051;28;20028;-73
2022/02/22 05:48:47;;;;;;;3.08;1.90;;;;;;;;;;5102309;28;20024;-74
2022/02/22 05:51:13;;;;;;;6.82;2.05;;;;;;;;;;5103348;28;20199;-73
2022/02/22 05:53:39;;;;;;;2.63;1.50;;;;;;;;;;5102277;28;20031;-73
2022/02/22 05:56:04;;;;;;;5.20;1.88;;;;;;;;;;5103478;28;20028;-74
2022/02/22 05:58:30;;;;;;;5.55;1.80;;;;;;;;;;5103246;28;20047;-74
2022/02/22 06:00:55;;;;;;;7.15;1.80;;;;;;;;;;5103230;28;20028;-73
2022/02/22 06:03:21;;;;;;;2.53;1.52;;;;;;;;;;5103117;28;20115;-72
2022/02/22 06:05:46;;;;;;;3.35;1.70;;;;;;;;;;5103384;28;20039;-73
2022/02/22 06:08:11;;;;;;;3.28;1.52;;;;;;;;;;5102248;28;20024;-73
2022/02/22 06:10:37;;;;;;;3.00;1.60;;;;;;;;;;5102922;28;20028;-73
2022/02/22 06:13:03;;;;;;;5.57;1.70;;;;;;;;;;5101968;28;20035;-74
2022/02/22 06:15:28;;;;;;;4.25;1.52;;;;;;;;;;5101747;28;20032;-73
2022/02/22 06:17:53;;;;;;;4.88;2.00;;;;;;;;;;5102730;28;20089;-72
2022/02/22 06:20:19;;;;;;;2.83;1.80;;;;;;;;;;5103157;28;20032;-72
2022/02/22 06:22:47;;;;;;;5.03;1.67;;;;;;;;;;5102971;28;20016;-73
2022/02/22 06:25:13;;;;;;;3.35;1.27;;;;;;;;;;5103390;28;20035;-73
2022/02/22 06:27:50;;;;;;;3.72;1.60;;;;;;;;;;5101936;28;20066;-72
2022/02/22 06:30:17;;;;;;;5.78;1.52;;;;;;;;;;5101662;28;20028;-72
2022/02/22 06:32:43;;;;;;;4.30;1.60;;;;;;;;;;5103357;28;20039;-72
2022/02/22 06:35:09;;;;;;;2.33;1.48;;;;;;;;;;5102984;28;20016;-73
2022/02/22 06:37:34;;;;;;;3.83;1.90;;;;;;;;;;5103332;28;20111;-73
2022/02/22 06:40:00;;;;;;;3.47;1.85;;;;;;;;;;5101654;28;20024;-73
2022/02/22 06:42:25;;;;;;;3.83;1.40;;;;;;;;;;5103137;28;20091;-73
2022/02/22 06:44:51;;;;;;;3.70;1.88;;;;;;;;;;5103038;28;20028;-73
2022/02/22 06:47:16;;;;;;;2.53;1.45;;;;;;;;;;5103111;28;20599;-75
2022/02/22 06:49:42;;;;;;;3.95;1.60;;;;;;;;;;5103229;28;20047;-73
2022/02/22 06:52:08;;;;;;;4.22;1.75;;;;;;;;;;5103126;28;20034;-73
2022/02/22 06:54:33;;;;;;;4.82;1.30;;;;;;;;;;5101333;28;20042;-72
2022/02/22 06:56:59;;;;;;;3.38;1.73;;;;;;;;;;5103061;28;20032;-72
2022/02/22 06:59:24;;;;;;;3.63;1.52;;;;;;;;;;5101475;28;20361;-73
2022/02/22 07:01:49;;;;;;;4.00;1.50;;;;;;;;;;5102903;28;20059;-73
2022/02/22 07:04:15;;;;;;;3.20;1.40;;;;;;;;;;5103133;28;20020;-74
2022/02/22 07:06:40;;;;;;;2.13;1.08;;;;;;;;;;5102759;28;20021;-72
2022/02/22 07:09:06;;;;;;;1.92;1.30;;;;;;;;;;5102738;28;20034;-73
2022/02/22 07:11:32;;;;;;;3.15;1.38;;;;;;;;;;5101036;28;20038;-73
2022/02/22 07:13:57;;;;;;;3.85;1.45;;;;;;;;;;5100853;28;20324;-73
2022/02/22 07:16:23;;;;;;;5.18;1.55;;;;;;;;;;5102201;28;20449;-73
2022/02/22 07:18:48;;;;;;;4.18;1.20;;;;;;;;;;5102088;28;20070;-72
2022/02/22 07:21:14;;;;;;;1.50;1.15;;;;;;;;;;5101877;28;20028;-73
2022/02/22 07:23:39;;;;;;;5.40;1.30;;;;;;;;;;5101754;28;20154;-72
2022/02/22 07:26:05;;;;;;;3.30;1.40;;;;;;;;;;5101875;28;20028;-74
2022/02/22 07:28:30;;;;;;;4.28;1.52;;;;;;;;;;5102067;28;20455;-73
2022/02/22 07:30:56;;;;;;;3.58;1.40;;;;;;;;;;5106367;28;20420;-74
2022/02/22 07:33:21;;;;;;;2.63;1.23;;;;;;;;;;5106287;28;20035;-73
2022/02/22 07:35:47;;;;;;;3.33;1.20;;;;;;;;;;5106038;28;20161;-73
2022/02/22 07:38:12;;;;;;;5.47;1.67;;;;;;;;;;5106398;28;20395;-73
2022/02/22 07:40:38;;;;;;;3.03;1.38;;;;;;;;;;5106046;28;20486;-73
2022/02/22 07:43:04;;;;;;;3.20;1.45;;;;;;;;;;5106293;28;20032;-72
2022/02/22 07:45:29;;;;;;;2.55;1.10;;;;;;;;;;5105959;28;20386;-71
2022/02/22 07:47:55;;;;;;;4.32;1.50;;;;;;;;;;5104519;28;20024;-73
2022/02/22 07:50:20;;;;;;;5.78;1.70;;;;;;;;;;5106603;28;20049;-73
2022/02/22 07:52:46;;;;;;;3.17;1.10;;;;;;;;;;5104814;28;20455;-73
2022/02/22 07:55:11;;;;;;;4.47;1.80;;;;;;;;;;5105852;28;20081;-72
2022/02/22 07:57:37;;;;;;;4.95;1.50;;;;;;;;;;5106101;28;20039;-73
2022/02/22 08:00:04;;;;;;;4.88;1.20;;;;;;;;;;5104706;28;20035;-73
2022/02/22 08:02:30;;;;;;;4.03;1.50;;;;;;;;;;5104867;28;20490;-72
2022/02/22 08:04:55;;;;;;;2.33;1.13;;;;;;;;;;5105977;28;20062;-73
2022/02/22 08:07:21;;;;;;;1.35;1.02;;;;;;;;;;5106149;28;20047;-72
2022/02/22 08:09:47;;;;;;;4.00;1.60;;;;;;;;;;5103771;28;20024;-73
2022/02/22 08:12:13;;;;;;;2.35;1.17;;;;;;;;;;5104650;28;20020;-72
2022/02/22 08:14:39;;;;;;;2.80;1.10;;;;;;;;;;5105517;28;20031;-72
2022/02/22 08:17:04;;;;;;;1.88;1.30;;;;;;;;;;5105625;28;20032;-72
2022/02/22 08:19:30;;;;;;;3.35;1.30;;;;;;;;;;5105188;28;20055;-73
2022/02/22 08:21:57;;;;;;;3.03;1.17;;;;;;;;;;5105315;28;20060;-73
2022/02/22 08:24:24;;;;;;;2.95;1.10;;;;;;;;;;5105022;28;20043;-73
2022/02/22 08:26:51;;;;;;;3.50;1.55;;;;;;;;;;5105442;28;20024;-72
2022/02/22 08:29:23;;;;;;;2.22;1.38;;;;;;;;;;5105298;28;20054;-72
2022/02/22 08:31:49;;;;;;;3.63;1.20;;;;;;;;;;5103899;28;20393;-71
2022/02/22 08:34:15;;;;;;;3.55;1.52;;;;;;;;;;5105232;28;20028;-73
2022/02/22 08:36:41;;;;;;;2.95;1.27;;;;;;;;;;5104906;28;20088;-72
2022/02/22 08:39:06;;;;;;;4.47;1.45;;;;;;;;;;5105243;28;20028;-73
2022/02/22 08:41:32;;;;;;;3.10;1.52;;;;;;;;;;5104689;28;20067;-72
2022/02/22 08:44:01;;;;;;;3.08;1.25;;;;;;;;;;5105205;28;20028;-72
2022/02/22 08:46:26;;;;;;;5.32;1.50;;;;;;;;;;5103872;28;20035;-73
2022/02/22 08:48:51;;;;;;;2.75;0.93;;;;;;;;;;5103975;28;20036;-74
2022/02/22 08:51:17;;;;;;;1.77;1.00;;;;;;;;;;5103830;28;20405;-74
2022/02/22 08:53:42;;;;;;;4.10;1.23;;;;;;;;;;5105258;28;20501;-72
2022/02/22 08:56:09;;;;;;;3.78;1.13;;;;;;;;;;5105365;28;20344;-73
2022/02/22 08:58:34;;;;;;;4.13;1.30;;;;;;;;;;5103798;28;20055;-72
2022/02/22 09:01:00;;;;;;;4.38;1.15;;;;;;;;;;5103519;28;20024;-73
2022/02/22 09:03:25;;;;;;;1.40;0.95;;;;;;;;;;5104144;28;20340;-73
2022/02/22 09:05:51;;;;;;;2.55;1.23;;;;;;;;;;5105210;28;20510;-72
2022/02/22 09:08:17;;;;;;;1.98;0.90;;;;;;;;;;5105013;28;20039;-74
2022/02/22 09:10:45;;;;;;;1.65;1.10;;;;;;;;;;5105101;28;20035;-73
2022/02/22 09:13:10;;;;;;;1.73;1.05;;;;;;;;;;5104793;28;20031;-72
2022/02/22 09:15:37;;;;;;;1.95;1.13;;;;;;;;;;5104451;28;20510;-73
2022/02/22 09:18:02;;;;;;;3.05;1.20;;;;;;;;;;5103312;28;20087;-72
2022/02/22 09:20:28;;;;;;;2.08;1.15;;;;;;;;;;5104354;28;20028;-72
2022/02/22 09:22:54;;;;;;;1.95;0.95;;;;;;;;;;5102845;28;20096;-72
2022/02/22 09:25:19;;;;;;;1.55;1.10;;;;;;;;;;5102933;28;20032;-74
2022/02/22 09:27:45;;;;;;;3.22;1.30;;;;;;;;;;5104405;28;20035;-74
2022/02/22 09:30:14;;;;;;;1.98;1.00;;;;;;;;;;5102857;28;20020;-73
2022/02/22 09:32:44;;;;;;;2.22;0.65;;;;;;;;;;5103032;28;20028;-74
2022/02/22 09:35:12;;;;;;;2.83;1.20;;;;;;;;;;5102765;28;20024;-75
2022/02/22 09:37:38;;;;;;;1.50;1.10;;;;;;;;;;5102895;28;20316;-73
2022/02/22 09:40:04;;;;;;;3.75;1.98;;;;;;;;;;5103878;28;20043;-72
2022/02/22 09:42:29;;;;;;;2.25;1.20;;;;;;;;;;5103926;28;20020;-73
2022/02/22 09:44:55;;;;;;;2.05;0.95;;;;;;;;;;5103799;28;20030;-73
2022/02/22 09:47:21;;;;;;;1.35;0.82;;;;;;;;;;5103919;28;20294;-72
2022/02/22 09:49:49;;;;;;;2.97;1.20;;;;;;;;;;5103707;28;20063;-74
2022/02/22 09:52:15;;;;;;;1.85;1.08;;;;;;;;;;5102848;28;20087;-73
2022/02/22 09:54:40;;;;;;;1.58;1.10;;;;;;;;;;5103696;28;20028;-74
2022/02/22 09:57:06;;;;;;;2.05;1.20;;;;;;;;;;5103653;28;20528;-71
2022/02/22 09:59:32;;;;;;;2.17;0.95;;;;;;;;;;5103604;28;20054;-73
2022/02/22 10:01:58;;;;;;;2.92;1.40;;;;;;;;;;5103569;28;20024;-73
2022/02/22 10:04:25;;;;;;;2.00;1.00;;;;;;;;;;5103424;28;20043;-72
2022/02/22 10:06:55;;;;;;;3.60;1.50;;;;;;;;;;5101649;28;20024;-74
2022/02/22 10:09:21;;;;;;;2.97;1.10;;;;;;;;;;5103355;28;20031;-74
2022/02/22 10:11:48;;;;;;;3.42;1.77;;;;;;;;;;5103435;28;20103;-74
2022/02/22 10:14:27;;;;;;;2.03;0.88;;;;;;;;;;5101987;28;20060;-74
2022/02/22 10:16:57;;;;;;;2.50;1.20;;;;;;;;;;5103490;28;20020;-73
2022/02/22 10:19:34;;;;;;;1.80;1.05;;;;;;;;;;5101738;28;20340;-73
2022/02/22 10:22:00;;;;;;;3.50;1.35;;;;;;;;;;5103442;28;20092;-72
2022/02/22 10:24:29;;;;;;;2.25;1.10;;;;;;;;;;5102993;28;20052;-73
2022/02/22 10:27:08;;;;;;;3.78;1.30;;;;;;;;;;5103194;28;20071;-74
2022/02/22 10:29:36;;;;;;;3.33;1.08;;;;;;;;;;5103202;28;20039;-73
2022/02/22 10:32:16;;;;;;;2.80;1.30;;;;;;;;;;5101637;28;20024;-72
2022/02/22 10:34:42;;;;;;;1.25;0.90;;;;;;;;;;5102941;28;20077;-74
2022/02/22 10:37:08;;;;;;;2.03;1.10;;;;;;;;;;5103360;28;20110;-72
2022/02/22 10:39:33;;;;;;;2.28;1.10;;;;;;;;;;5103110;28;20038;-75
2022/02/22 10:41:59;;;;;;;4.00;1.33;;;;;;;;;;5103335;28;20409;-71
2022/02/22 10:44:39;;;;;;;1.95;0.98;;;;;;;;;;5102968;28;20047;-73
2022/02/22 10:47:18;;;;;;;1.45;1.15;;;;;;;;;;5102939;28;20348;-72
2022/02/22 10:49:48;;;;;;;1.83;1.00;;;;;;;;;;5103046;28;20054;-73
2022/02/22 10:52:13;;;;;;;1.85;1.00;;;;;;;;;;5101575;28;20119;-73
2022/02/22 10:54:41;;;;;;;2.47;0.85;;;;;;;;;;5102731;28;20436;-72
2022/02/22 10:57:07;;;;;;;1.38;0.82;;;;;;;;;;5103319;28;20316;-73
2022/02/22 10:59:34;;;;;;;1.17;0.75;;;;;;;;;;5101390;28;20402;-74
2022/02/22 11:01:59;;;;;;;2.50;1.17;;;;;;;;;;5103151;28;20020;-74
2022/02/22 11:04:25;;;;;;;2.42;0.90;;;;;;;;;;5104159;28;20039;-74
2022/02/22 11:06:53;;;;;;;1.63;0.90;;;;;;;;;;5105306;28;20028;-74
2022/02/22 11:09:21;;;;;;;2.00;0.90;;;;;;;;;;5105274;28;20111;-74
2022/02/22 11:12:01;;;;;;;1.30;0.80;;;;;;;;;;5106994;28;20046;-74
2022/02/22 11:14:33;;;;;;;1.92;1.00;;;;;;;;;;5104850;28;20063;-73
2022/02/22 11:17:02;;;;;;;2.92;0.80;;;;;;;;;;5107096;28;20016;-73
2022/02/22 11:19:39;;;;;;;1.88;0.80;;;;;;;;;;5106677;28;20032;-75
2022/02/22 11:22:19;;;;;;;1.58;0.93;;;;;;;;;;5105419;28;20032;-72
2022/02/22 11:24:46;;;;;;;2.22;0.80;;;;;;;;;;5106330;28;20086;-71
2022/02/22 11:27:32;;;;;;;2.63;1.00;;;;;;;;;;5105370;28;20024;-73
2022/02/22 11:30:07;;;;;;;1.95;1.00;;;;;;;;;;5104774;28;20028;-71
2022/02/22 11:32:37;;;;;;;4.07;1.30;;;;;;;;;;5106460;28;20024;-72
2022/02/22 11:35:19;;;;;;;2.63;0.88;;;;;;;;;;5106441;28;20028;-73
2022/02/22 11:37:46;;;;;;;2.40;1.00;;;;;;;;;;5106266;28;20024;-73
2022/02/22 11:40:23;;;;;;;2.83;1.00;;;;;;;;;;5104880;28;20027;-73
2022/02/22 11:42:49;;;;;;;2.17;0.90;;;;;;;;;;5106508;28;20031;-73
2022/02/22 11:45:26;;;;;;;1.40;0.90;;;;;;;;;;5105966;28;20035;-73
2022/02/22 11:48:15;;;;;;;3.22;1.25;;;;;;;;;;5106132;28;20038;-74
2022/02/22 11:50:43;;;;;;;1.52;0.98;;;;;;;;;;5104611;28;20028;-74
2022/02/22 11:53:11;;;;;;;3.88;0.80;;;;;;;;;;5104542;28;20092;-75
2022/02/22 11:55:37;;;;;;;2.17;1.13;;;;;;;;;;5105839;28;20042;-75
2022/02/22 11:58:11;;;;;;;1.27;0.60;;;;;;;;;;5106239;28;20036;-74
2022/02/22 12:00:45;;;;;;;1.80;0.90;;;;;;;;;;5103958;28;20020;-74
2022/02/22 12:03:12;;;;;;;3.30;1.10;;;;;;;;;;5104395;28;20038;-72
2022/02/22 12:05:41;;;;;;;1.40;0.90;;;;;;;;;;5102861;28;20032;-76
2022/02/22 12:08:21;;;;;;;1.75;1.00;;;;;;;;;;5105699;28;20031;-74
2022/02/22 12:10:55;;;;;;;1.83;0.63;;;;;;;;;;5105608;28;20653;-73
2022/02/22 12:13:20;;;;;;;2.08;0.68;;;;;;;;;;5105512;28;20161;-74
2022/02/22 12:15:46;;;;;;;3.50;1.13;;;;;;;;;;5104441;28;20024;-74
2022/02/22 12:18:20;;;;;;;2.85;1.00;;;;;;;;;;5105471;28;20020;-73
2022/02/22 12:20:51;;;;;;;8.07;1.02;;;;;;;;;;5105307;28;20032;-73
2022/02/22 12:23:25;;;;;;;3.45;0.95;;;;;;;;;;5105414;28;20102;-74
2022/02/22 12:25:52;;;;;;;1.73;0.90;;;;;;;;;;5105396;28;20107;-74
2022/02/22 12:28:19;;;;;;;6.70;1.20;;;;;;;;;;5105088;28;20084;-73
2022/02/22 12:30:45;;;;;;;2.15;0.75;;;;;;;;;;5103666;28;20028;-75
2022/02/22 12:33:14;;;;;;;1.35;0.70;;;;;;;;;;5105239;28;20032;-73
2022/02/22 12:35:41;;;;;;;2.70;1.00;;;;;;;;;;5104655;28;20406;-73
2022/02/22 12:38:17;;;;;;;3.53;1.10;;;;;;;;;;5104778;28;20032;-73
2022/02/22 12:40:44;;;;;;;2.40;1.00;;;;;;;;;;5104309;28;20040;-73
2022/02/22 12:43:11;;;;;;;1.00;0.70;;;;;;;;;;5103476;28;20051;-73
2022/02/22 12:45:43;;;;;;;1.05;0.70;;;;;;;;;;5104239;28;20024;-74
2022/02/22 12:48:08;;;;;;;1.17;0.80;;;;;;;;;;5103769;28;20052;-73
2022/02/22 12:50:34;;;;;;;1.75;1.00;;;;;;;;;;5103964;28;20058;-73
2022/02/22 12:53:00;;;;;;;6.75;1.40;;;;;;;;;;5105585;28;20024;-72
2022/02/22 12:55:25;;;;;;;2.20;1.35;;;;;;;;;;5104488;28;20028;-73
2022/02/22 12:57:51;;;;;;;1.88;1.10;;;;;;;;;;5104849;28;20027;-73
2022/02/22 13:00:18;;;;;;;2.47;1.38;;;;;;;;;;5103045;28;20031;-74
2022/02/22 13:02:44;;;;;;;2.65;1.08;;;;;;;;;;5104758;28;20023;-75
2022/02/22 13:05:11;;;;;;;1.45;0.90;;;;;;;;;;5104693;28;20103;-73
2022/02/22 13:07:37;;;;;;;5.07;1.90;;;;;;;;;;5104713;28;20028;-73
2022/02/22 13:10:07;;;;;;;5.68;1.80;;;;;;;;;;5104502;28;20045;-73
2022/02/22 13:12:32;;;;;;;2.60;0.85;;;;;;;;;;5104911;28;20109;-73
2022/02/22 13:15:00;;;;;;;6.43;1.30;;;;;;;;;;5104117;28;20439;-73
2022/02/22 13:17:29;;;;;;;1.75;1.08;;;;;;;;;;5104374;28;20023;-72
2022/02/22 13:19:56;;;;;;;2.05;1.00;;;;;;;;;;5104234;28;20085;-74
2022/02/22 13:22:34;;;;;;;2.90;0.90;;;;;;;;;;5104259;28;20104;-73
2022/02/22 13:25:01;;;;;;;1.92;1.13;;;;;;;;;;5103907;28;20485;-73
2022/02/22 13:27:29;;;;;;;3.33;0.90;;;;;;;;;;5104103;28;20030;-73
2022/02/22 13:30:00;;;;;;;1.02;0.60;;;;;;;;;;5104146;28;20032;-73
2022/02/22 13:32:30;;;;;;;1.00;0.70;;;;;;;;;;5102867;28;20020;-71
2022/02/22 13:34:57;;;;;;;2.20;1.00;;;;;;;;;;5102226;28;20020;-71
2022/02/22 13:37:24;;;;;;;3.38;1.00;;;;;;;;;;5104127;28;20030;-72
2022/02/22 13:40:07;;;;;;;1.33;0.88;;;;;;;;;;5103616;28;20474;-73
2022/02/22 13:42:33;;;;;;;2.63;1.00;;;;;;;;;;5103642;28;20451;-73
2022/02/22 13:45:00;;;;;;;1.90;0.75;;;;;;;;;;5102409;28;20265;-74
2022/02/22 13:47:34;;;;;;;1.80;1.08;;;;;;;;;;5102495;28;20039;-72
2022/02/22 13:50:13;;;;;;;3.75;0.90;;;;;;;;;;5102475;28;20052;-73
2022/02/22 13:52:40;;;;;;;1.48;0.80;;;;;;;;;;5103611;28;20023;-73
2022/02/22 13:55:07;;;;;;;2.00;1.08;;;;;;;;;;5103188;28;20024;-74
2022/02/22 13:57:36;;;;;;;1.00;0.70;;;;;;;;;;5103245;28;20031;-73
2022/02/22 14:00:05;;;;;;;1.00;0.77;;;;;;;;;;5102825;28;20097;-73
2022/02/22 14:02:31;;;;;;;0.80;0.70;;;;;;;;;;5101749;28;20051;-74
2022/02/22 14:04:57;;;;;;;4.88;1.00;;;;;;;;;;5101953;28;20024;-73
2022/02/22 14:07:22;;;;;;;2.75;0.85;;;;;;;;;;5102992;28;20027;-74
2022/02/22 14:09:48;;;;;;;4.40;1.00;;;;;;;;;;5103286;28;20028;-72
2022/02/22 14:12:14;;;;;;;2.03;0.88;;;;;;;;;;5103209;28;20032;-73
2022/02/22 14:14:40;;;;;;;1.95;0.95;;;;;;;;;;5102703;28;20028;-73
2022/02/22 14:17:06;;;;;;;3.10;0.93;;;;;;;;;;5103125;28;20040;-73
2022/02/22 14:19:31;;;;;;;1.77;1.00;;;;;;;;;;5102980;28;20028;-74
2022/02/22 14:21:57;;;;;;;2.75;0.98;;;;;;;;;;5102996;28;20024;-74
2022/02/22 14:24:23;;;;;;;2.35;1.02;;;;;;;;;;5103102;28;20040;-74
2022/02/22 14:26:51;;;;;;;1.33;0.82;;;;;;;;;;5103095;28;20020;-74
2022/02/22 14:29:17;;;;;;;3.08;0.90;;;;;;;;;;5102959;28;20031;-74
2022/02/22 14:31:43;;;;;;;1.33;0.70;;;;;;;;;;5103123;28;20024;-74
2022/02/22 14:34:09;;;;;;;2.95;1.00;;;;;;;;;;5102795;28;20057;-74
2022/02/22 14:36:34;;;;;;;1.25;0.70;;;;;;;;;;5102958;28;20553;-73
2022/02/22 14:39:05;;;;;;;1.67;0.80;;;;;;;;;;5100866;28;20036;-74
2022/02/22 14:41:30;;;;;;;2.08;1.00;;;;;;;;;;5102968;28;20021;-74
2022/02/22 14:44:01;;;;;;;3.28;0.73;;;;;;;;;;5101164;28;20028;-74